createdAt,value
2023-04-12T00:00:23.910Z,21.19
2023-04-12T00:01:23.921Z,21.19
2023-04-12T00:02:24.034Z,21.19
2023-04-12T00:03:24.079Z,21.19
2023-04-12T00:04:24.109Z,21.18
2023-04-12T00:05:24.059Z,21.18
2023-04-12T00:06:24.001Z,21.18
2023-04-12T00:07:24.006Z,21.19
2023-04-12T00:08:23.996Z,21.18
2023-04-12T00:09:23.993Z,21.18
2023-04-12T00:10:24.011Z,21.18
2023-04-12T00:11:24.045Z,21.17
2023-04-12T00:12:24.041Z,21.18
2023-04-12T00:13:24.033Z,21.18
2023-04-12T00:14:24.043Z,21.17
2023-04-12T00:15:24.030Z,21.17
2023-04-12T00:16:24.096Z,21.18
2023-04-12T00:17:24.028Z,21.17
2023-04-12T00:18:24.022Z,21.17
2023-04-12T00:19:24.017Z,21.17
2023-04-12T00:20:24.011Z,21.17
2023-04-12T00:21:24.106Z,21.17
2023-04-12T00:22:23.999Z,21.17
2023-04-12T00:23:23.993Z,21.17
2023-04-12T00:24:23.988Z,21.17
2023-04-12T00:25:23.995Z,21.16
2023-04-12T00:26:23.988Z,21.16
2023-04-12T00:27:23.989Z,21.17
2023-04-12T00:28:24.000Z,21.17
2023-04-12T00:29:23.995Z,21.16
2023-04-12T00:30:23.999Z,21.16
2023-04-12T00:31:24.059Z,21.16
2023-04-12T00:32:24.006Z,21.16
2023-04-12T00:33:23.992Z,21.16
2023-04-12T00:34:23.998Z,21.15
2023-04-12T00:35:23.989Z,21.15
2023-04-12T00:36:24.018Z,21.15
2023-04-12T00:37:24.000Z,21.15
2023-04-12T00:38:24.005Z,21.15
2023-04-12T00:39:24.018Z,21.14
2023-04-12T00:40:24.002Z,21.15
2023-04-12T00:41:24.006Z,21.15
2023-04-12T00:42:24.003Z,21.15
2023-04-12T00:43:24.003Z,21.15
2023-04-12T00:44:24.003Z,21.14
2023-04-12T00:45:24.002Z,21.15
2023-04-12T00:46:24.040Z,21.14
2023-04-12T00:47:24.033Z,21.14
2023-04-12T00:48:24.008Z,21.14
2023-04-12T00:49:24.014Z,21.14
2023-04-12T00:50:24.012Z,21.14
2023-04-12T00:51:24.012Z,21.14
2023-04-12T00:52:24.027Z,21.14
2023-04-12T00:53:24.019Z,21.14
2023-04-12T00:54:24.034Z,21.14
2023-04-12T00:55:24.036Z,21.13
2023-04-12T00:56:24.031Z,21.14
2023-04-12T00:57:24.011Z,21.13
2023-04-12T00:58:24.025Z,21.13
2023-04-12T00:59:24.012Z,21.13
2023-04-12T01:00:24.017Z,21.13
2023-04-12T01:01:24.195Z,21.13
2023-04-12T01:02:24.119Z,21.12
2023-04-12T01:03:24.258Z,21.13
2023-04-12T01:04:24.009Z,21.13
2023-04-12T01:05:24.046Z,21.12
2023-04-12T01:06:24.018Z,21.12
2023-04-12T01:07:24.012Z,21.13
2023-04-12T01:08:24.012Z,21.13
2023-04-12T01:09:24.019Z,21.13
2023-04-12T01:10:24.017Z,21.13
2023-04-12T01:11:24.005Z,21.12
2023-04-12T01:12:24.005Z,21.13
2023-04-12T01:13:24.018Z,21.12
2023-04-12T01:14:24.026Z,21.12
2023-04-12T01:15:24.046Z,21.12
2023-04-12T01:16:24.132Z,21.12
2023-04-12T01:17:24.072Z,21.11
2023-04-12T01:18:24.069Z,21.12
2023-04-12T01:19:24.052Z,21.12
2023-04-12T01:20:24.057Z,21.11
2023-04-12T01:21:24.068Z,21.11
2023-04-12T01:22:24.093Z,21.11
2023-04-12T01:23:24.095Z,21.12
2023-04-12T01:24:24.117Z,21.11
2023-04-12T01:25:24.187Z,21.11
2023-04-12T01:26:24.159Z,21.12
2023-04-12T01:27:24.105Z,21.11
2023-04-12T01:28:24.118Z,21.11
2023-04-12T01:29:24.100Z,21.11
2023-04-12T01:30:24.099Z,21.11
2023-04-12T01:31:24.161Z,21.11
2023-04-12T01:32:24.125Z,21.10
2023-04-12T01:33:24.101Z,21.11
2023-04-12T01:34:24.128Z,21.10
2023-04-12T01:35:24.276Z,21.11
2023-04-12T01:36:24.129Z,21.11
2023-04-12T01:37:24.115Z,21.10
2023-04-12T01:38:24.116Z,21.11
2023-04-12T01:39:24.120Z,21.11
2023-04-12T01:40:24.121Z,21.10
2023-04-12T01:41:24.129Z,21.10
2023-04-12T01:42:24.126Z,21.10
2023-04-12T01:43:24.122Z,21.10
2023-04-12T01:44:24.117Z,21.10
2023-04-12T01:45:24.140Z,21.10
2023-04-12T01:46:24.126Z,21.11
2023-04-12T01:47:24.165Z,21.10
2023-04-12T01:48:24.130Z,21.10
2023-04-12T01:49:24.137Z,21.10
2023-04-12T01:50:24.136Z,21.10
2023-04-12T01:51:24.123Z,21.10
2023-04-12T01:52:24.106Z,21.10
2023-04-12T01:53:24.104Z,21.09
2023-04-12T01:54:24.111Z,21.10
2023-04-12T01:55:24.114Z,21.10
2023-04-12T01:56:24.122Z,21.10
2023-04-12T01:57:24.137Z,21.10
2023-04-12T01:58:24.129Z,21.09
2023-04-12T01:59:24.124Z,21.09
2023-04-12T02:00:24.119Z,21.10
2023-04-12T02:01:24.206Z,21.09
2023-04-12T02:02:24.203Z,21.09
2023-04-12T02:03:24.243Z,21.09
2023-04-12T02:04:24.143Z,21.09
2023-04-12T02:05:24.155Z,21.09
2023-04-12T02:06:24.161Z,21.09
2023-04-12T02:07:24.150Z,21.08
2023-04-12T02:08:24.153Z,21.09
2023-04-12T02:09:24.152Z,21.09
2023-04-12T02:10:24.159Z,21.09
2023-04-12T02:11:24.171Z,21.09
2023-04-12T02:12:24.153Z,21.09
2023-04-12T02:13:24.164Z,21.08
2023-04-12T02:14:24.152Z,21.09
2023-04-12T02:15:24.150Z,21.08
2023-04-12T02:16:24.251Z,21.08
2023-04-12T02:17:24.214Z,21.08
2023-04-12T02:18:24.224Z,21.09
2023-04-12T02:19:24.148Z,21.08
2023-04-12T02:20:24.139Z,21.08
2023-04-12T02:21:24.165Z,21.08
2023-04-12T02:22:24.167Z,21.08
2023-04-12T02:23:24.166Z,21.08
2023-04-12T02:24:24.176Z,21.08
2023-04-12T02:25:24.186Z,21.08
2023-04-12T02:26:24.172Z,21.07
2023-04-12T02:27:24.169Z,21.08
2023-04-12T02:28:24.173Z,21.07
2023-04-12T02:29:24.162Z,21.07
2023-04-12T02:30:24.220Z,21.07
2023-04-12T02:31:24.267Z,21.07
2023-04-12T02:32:24.197Z,21.07
2023-04-12T02:33:24.184Z,21.07
2023-04-12T02:34:24.226Z,21.07
2023-04-12T02:35:24.213Z,21.06
2023-04-12T02:36:24.189Z,21.07
2023-04-12T02:37:24.196Z,21.07
2023-04-12T02:38:24.198Z,21.07
2023-04-12T02:39:24.203Z,21.07
2023-04-12T02:40:24.204Z,21.06
2023-04-12T02:41:24.219Z,21.06
2023-04-12T02:42:24.224Z,21.06
2023-04-12T02:43:24.215Z,21.07
2023-04-12T02:44:24.229Z,21.06
2023-04-12T02:45:24.225Z,21.07
2023-04-12T02:46:24.436Z,21.06
2023-04-12T02:47:24.285Z,21.06
2023-04-12T02:48:24.246Z,21.06
2023-04-12T02:49:24.254Z,21.05
2023-04-12T02:50:24.253Z,21.06
2023-04-12T02:51:24.390Z,21.05
2023-04-12T02:52:24.300Z,21.05
2023-04-12T02:53:24.310Z,21.05
2023-04-12T02:54:24.309Z,21.06
2023-04-12T02:55:24.313Z,21.05
2023-04-12T02:56:24.323Z,21.05
2023-04-12T02:57:24.331Z,21.05
2023-04-12T02:58:24.329Z,21.05
2023-04-12T02:59:24.375Z,21.05
2023-04-12T03:00:24.389Z,21.06
2023-04-12T03:01:24.444Z,21.06
2023-04-12T03:02:24.609Z,21.06
2023-04-12T03:03:24.649Z,21.06
2023-04-12T03:04:24.481Z,21.06
2023-04-12T03:05:24.410Z,21.07
2023-04-12T03:06:24.417Z,21.08
2023-04-12T03:07:24.408Z,21.08
2023-04-12T03:08:24.410Z,21.08
2023-04-12T03:09:24.418Z,21.08
2023-04-12T03:10:24.453Z,21.09
2023-04-12T03:11:24.433Z,21.09
2023-04-12T03:12:24.474Z,21.09
2023-04-12T03:13:24.438Z,21.10
2023-04-12T03:14:24.445Z,21.10
2023-04-12T03:15:24.457Z,21.10
2023-04-12T03:16:24.455Z,21.10
2023-04-12T03:17:24.493Z,21.11
2023-04-12T03:18:24.472Z,21.11
2023-04-12T03:19:24.448Z,21.11
2023-04-12T03:20:24.500Z,21.11
2023-04-12T03:21:24.454Z,21.11
2023-04-12T03:22:24.448Z,21.11
2023-04-12T03:23:24.466Z,21.11
2023-04-12T03:24:24.510Z,21.12
2023-04-12T03:25:24.507Z,21.12
2023-04-12T03:26:24.497Z,21.13
2023-04-12T03:27:24.496Z,21.13
2023-04-12T03:28:24.501Z,21.12
2023-04-12T03:29:24.500Z,21.13
2023-04-12T03:30:24.498Z,21.13
2023-04-12T03:31:24.530Z,21.13
2023-04-12T03:32:24.519Z,21.13
2023-04-12T03:33:24.517Z,21.13
2023-04-12T03:34:24.518Z,21.14
2023-04-12T03:35:24.523Z,21.14
2023-04-12T03:36:24.525Z,21.14
2023-04-12T03:37:24.615Z,21.14
2023-04-12T03:38:24.558Z,21.15
2023-04-12T03:39:24.536Z,21.15
2023-04-12T03:40:24.540Z,21.14
2023-04-12T03:41:24.522Z,21.14
2023-04-12T03:42:32.981Z,21.15
2023-04-12T03:43:25.505Z,21.15
2023-04-12T03:44:24.493Z,21.15
2023-04-12T03:45:24.483Z,21.15
2023-04-12T03:46:24.492Z,21.16
2023-04-12T03:47:24.465Z,21.16
2023-04-12T03:48:24.447Z,21.16
2023-04-12T03:49:24.421Z,21.17
2023-04-12T03:50:24.412Z,21.17
2023-04-12T03:51:24.395Z,21.17
2023-04-12T03:52:24.398Z,21.17
2023-04-12T03:53:24.366Z,21.17
2023-04-12T03:54:24.348Z,21.17
2023-04-12T03:55:24.331Z,21.17
2023-04-12T03:56:24.322Z,21.18
2023-04-12T03:57:24.302Z,21.18
2023-04-12T03:58:24.279Z,21.17
2023-04-12T03:59:24.274Z,21.18
2023-04-12T04:00:24.248Z,21.18
2023-04-12T04:01:24.244Z,21.19
2023-04-12T04:02:24.382Z,21.18
2023-04-12T04:03:24.340Z,21.19
2023-04-12T04:04:24.349Z,21.18
2023-04-12T04:05:24.173Z,21.18
2023-04-12T04:06:24.173Z,21.19
2023-04-12T04:07:24.148Z,21.18
2023-04-12T04:08:24.123Z,21.18
2023-04-12T04:09:24.132Z,21.19
2023-04-12T04:10:24.098Z,21.19
2023-04-12T04:11:24.083Z,21.19
2023-04-12T04:12:24.066Z,21.20
2023-04-12T04:13:24.070Z,21.20
2023-04-12T04:14:24.061Z,21.19
2023-04-12T04:15:24.068Z,21.19
2023-04-12T04:16:24.115Z,21.19
2023-04-12T04:17:24.059Z,21.20
2023-04-12T04:18:24.029Z,21.19
2023-04-12T04:19:24.051Z,21.20
2023-04-12T04:20:25.072Z,21.21
2023-04-12T04:21:24.153Z,21.20
2023-04-12T04:22:24.138Z,21.20
2023-04-12T04:23:24.125Z,21.20
2023-04-12T04:24:24.117Z,21.20
2023-04-12T04:25:24.147Z,21.21
2023-04-12T04:26:24.160Z,21.21
2023-04-12T04:27:24.154Z,21.20
2023-04-12T04:28:24.148Z,21.21
2023-04-12T04:29:24.160Z,21.21
2023-04-12T04:30:24.131Z,21.20
2023-04-12T04:31:24.165Z,21.21
2023-04-12T04:32:24.145Z,21.21
2023-04-12T04:33:24.117Z,21.21
2023-04-12T04:34:24.136Z,21.21
2023-04-12T04:35:24.208Z,21.21
2023-04-12T04:36:24.124Z,21.22
2023-04-12T04:37:24.115Z,21.22
2023-04-12T04:38:24.100Z,21.21
2023-04-12T04:39:24.107Z,21.22
2023-04-12T04:40:24.099Z,21.22
2023-04-12T04:41:24.101Z,21.22
2023-04-12T04:42:24.083Z,21.22
2023-04-12T04:43:24.076Z,21.22
2023-04-12T04:44:24.079Z,21.22
2023-04-12T04:45:24.087Z,21.23
2023-04-12T04:46:24.050Z,21.22
2023-04-12T04:47:24.093Z,21.22
2023-04-12T04:48:24.028Z,21.22
2023-04-12T04:49:24.024Z,21.22
2023-04-12T04:50:24.009Z,21.22
2023-04-12T04:51:24.000Z,21.23
2023-04-12T04:52:23.978Z,21.22
2023-04-12T04:53:23.978Z,21.23
2023-04-12T04:54:23.944Z,21.23
2023-04-12T04:55:23.923Z,21.23
2023-04-12T04:56:23.937Z,21.22
2023-04-12T04:57:23.931Z,21.22
2023-04-12T04:58:23.924Z,21.23
2023-04-12T04:59:23.937Z,21.23
2023-04-12T05:00:23.969Z,21.23
2023-04-12T05:01:24.052Z,21.23
2023-04-12T05:02:24.003Z,21.23
2023-04-12T05:03:23.946Z,21.23
2023-04-12T05:04:24.030Z,21.23
2023-04-12T05:05:23.885Z,21.23
2023-04-12T05:06:23.882Z,21.23
2023-04-12T05:07:23.875Z,21.22
2023-04-12T05:08:23.879Z,21.23
2023-04-12T05:09:23.860Z,21.23
2023-04-12T05:10:23.881Z,21.23
2023-04-12T05:11:23.933Z,21.23
2023-04-12T05:12:23.862Z,21.23
2023-04-12T05:13:23.846Z,21.23
2023-04-12T05:14:23.857Z,21.23
2023-04-12T05:15:23.846Z,21.23
2023-04-12T05:16:24.107Z,21.23
2023-04-12T05:17:23.837Z,21.23
2023-04-12T05:18:23.811Z,21.23
2023-04-12T05:19:23.796Z,21.24
2023-04-12T05:20:23.850Z,21.24
2023-04-12T05:21:24.572Z,21.23
2023-04-12T05:22:23.780Z,21.23
2023-04-12T05:23:23.779Z,21.24
2023-04-12T05:24:23.772Z,21.25
2023-04-12T05:25:23.750Z,21.25
2023-04-12T05:26:23.735Z,21.26
2023-04-12T05:27:23.722Z,21.28
2023-04-12T05:28:23.718Z,21.30
2023-04-12T05:29:23.701Z,21.33
2023-04-12T05:30:23.684Z,21.36
2023-04-12T05:31:24.380Z,21.39
2023-04-12T05:32:24.436Z,21.40
2023-04-12T05:33:23.765Z,21.41
2023-04-12T05:34:23.785Z,21.42
2023-04-12T05:35:23.844Z,21.42
2023-04-12T05:36:23.856Z,21.41
2023-04-12T05:37:23.838Z,21.41
2023-04-12T05:38:23.852Z,21.40
2023-04-12T05:39:23.874Z,21.41
2023-04-12T05:40:23.854Z,21.40
2023-04-12T05:41:23.839Z,21.39
2023-04-12T05:42:23.850Z,21.38
2023-04-12T05:43:23.846Z,21.37
2023-04-12T05:44:23.953Z,21.36
2023-04-12T05:45:23.932Z,21.36
2023-04-12T05:46:23.967Z,21.36
2023-04-12T05:47:23.959Z,21.35
2023-04-12T05:48:23.929Z,21.34
2023-04-12T05:49:24.485Z,21.34
2023-04-12T05:50:24.985Z,21.34
2023-04-12T05:51:34.039Z,21.33
2023-04-12T05:52:25.010Z,21.33
2023-04-12T05:53:23.999Z,21.32
2023-04-12T05:54:24.510Z,21.32
2023-04-12T05:55:23.951Z,21.32
2023-04-12T05:56:23.937Z,21.31
2023-04-12T05:57:23.919Z,21.32
2023-04-12T05:58:23.931Z,21.30
2023-04-12T05:59:24.030Z,21.31
2023-04-12T06:00:23.882Z,21.30
2023-04-12T06:01:23.871Z,21.30
2023-04-12T06:02:24.042Z,21.30
2023-04-12T06:03:23.934Z,21.29
2023-04-12T06:04:27.904Z,21.29
2023-04-12T06:05:24.875Z,21.29
2023-04-12T06:06:23.779Z,21.28
2023-04-12T06:07:23.772Z,21.28
2023-04-12T06:08:23.774Z,21.28
2023-04-12T06:09:23.747Z,21.28
2023-04-12T06:10:23.709Z,21.28
2023-04-12T06:11:23.725Z,21.28
2023-04-12T06:12:23.683Z,21.28
2023-04-12T06:13:23.643Z,21.28
2023-04-12T06:14:23.639Z,21.28
2023-04-12T06:15:23.672Z,21.28
2023-04-12T06:16:23.687Z,21.28
2023-04-12T06:17:23.660Z,21.27
2023-04-12T06:18:23.562Z,21.28
2023-04-12T06:19:23.807Z,21.28
2023-04-12T06:20:23.554Z,21.28
2023-04-12T06:21:23.523Z,21.29
2023-04-12T06:22:23.511Z,21.30
2023-04-12T06:23:23.498Z,21.30
2023-04-12T06:24:23.487Z,21.32
2023-04-12T06:25:23.469Z,21.33
2023-04-12T06:26:23.500Z,21.34
2023-04-12T06:27:23.469Z,21.36
2023-04-12T06:28:24.506Z,21.39
2023-04-12T06:29:24.509Z,21.41
2023-04-12T06:30:23.590Z,21.44
2023-04-12T06:31:23.710Z,21.46
2023-04-12T06:32:23.771Z,21.48
2023-04-12T06:33:23.696Z,21.51
2023-04-12T06:34:23.775Z,21.54
2023-04-12T06:35:24.042Z,21.54
2023-04-12T06:36:23.821Z,21.56
2023-04-12T06:37:23.872Z,21.58
2023-04-12T06:38:23.910Z,21.60
2023-04-12T06:39:23.957Z,21.61
2023-04-12T06:40:24.003Z,21.62
2023-04-12T06:41:24.042Z,21.64
2023-04-12T06:42:24.086Z,21.65
2023-04-12T06:43:24.167Z,21.67
2023-04-12T06:44:24.154Z,21.68
2023-04-12T06:45:24.194Z,21.71
2023-04-12T06:46:24.232Z,21.72
2023-04-12T06:47:24.316Z,21.73
2023-04-12T06:48:24.252Z,21.74
2023-04-12T06:49:24.995Z,21.76
2023-04-12T06:50:24.276Z,21.79
2023-04-12T06:51:24.300Z,21.80
2023-04-12T06:52:24.317Z,21.81
2023-04-12T06:53:24.359Z,21.82
2023-04-12T06:54:24.372Z,21.82
2023-04-12T06:55:24.388Z,21.83
2023-04-12T06:56:24.422Z,21.84
2023-04-12T06:57:24.494Z,21.85
2023-04-12T06:58:24.476Z,21.86
2023-04-12T06:59:24.528Z,21.86
2023-04-12T07:00:24.521Z,21.87
2023-04-12T07:01:24.607Z,21.88
2023-04-12T07:02:24.644Z,21.89
2023-04-12T07:03:24.721Z,21.90
2023-04-12T07:04:24.639Z,21.91
2023-04-12T07:05:24.615Z,21.92
2023-04-12T07:06:26.150Z,21.93
2023-04-12T07:07:24.667Z,21.93
2023-04-12T07:08:24.674Z,21.94
2023-04-12T07:09:24.683Z,21.96
2023-04-12T07:10:24.703Z,21.96
2023-04-12T07:11:24.713Z,21.96
2023-04-12T07:12:24.721Z,21.91
2023-04-12T07:13:24.745Z,21.87
2023-04-12T07:14:24.777Z,21.83
2023-04-12T07:15:24.827Z,21.80
2023-04-12T07:16:24.913Z,21.79
2023-04-12T07:17:24.904Z,21.78
2023-04-12T07:18:24.919Z,21.77
2023-04-12T07:19:24.961Z,21.76
2023-04-12T07:20:25.077Z,21.75
2023-04-12T07:21:25.046Z,21.75
2023-04-12T07:22:25.116Z,21.74
2023-04-12T07:23:25.140Z,21.74
2023-04-12T07:24:26.025Z,21.73
2023-04-12T07:25:25.202Z,21.73
2023-04-12T07:26:25.228Z,21.73
2023-04-12T07:27:25.272Z,21.72
2023-04-12T07:28:25.296Z,21.72
2023-04-12T07:29:25.343Z,21.72
2023-04-12T07:30:25.434Z,21.71
2023-04-12T07:31:25.393Z,21.71
2023-04-12T07:32:25.636Z,21.71
2023-04-12T07:33:25.527Z,21.71
2023-04-12T07:34:25.580Z,21.70
2023-04-12T07:35:25.554Z,21.69
2023-04-12T07:36:25.585Z,21.68
2023-04-12T07:37:25.626Z,21.68
2023-04-12T07:38:25.650Z,21.68
2023-04-12T07:39:25.715Z,21.67
2023-04-12T07:40:25.872Z,21.67
2023-04-12T07:41:25.772Z,21.67
2023-04-12T07:42:25.804Z,21.66
2023-04-12T07:43:25.838Z,21.67
2023-04-12T07:44:25.889Z,21.66
2023-04-12T07:45:25.959Z,21.66
2023-04-12T07:46:26.145Z,21.65
2023-04-12T07:47:26.075Z,21.64
2023-04-12T07:48:26.041Z,21.65
2023-04-12T07:49:26.090Z,21.64
2023-04-12T07:50:26.119Z,21.65
2023-04-12T07:51:26.146Z,21.64
2023-04-12T07:52:26.200Z,21.64
2023-04-12T07:53:26.220Z,21.64
2023-04-12T07:54:26.257Z,21.63
2023-04-12T07:55:26.306Z,21.63
2023-04-12T07:56:26.376Z,21.62
2023-04-12T07:57:26.402Z,21.62
2023-04-12T07:58:26.453Z,21.62
2023-04-12T07:59:26.477Z,21.62
2023-04-12T08:00:26.506Z,21.62
2023-04-12T08:01:26.562Z,21.61
2023-04-12T08:02:26.844Z,21.62
2023-04-12T08:03:28.671Z,21.62
2023-04-12T08:04:26.811Z,21.62
2023-04-12T08:05:26.756Z,21.62
2023-04-12T08:06:30.017Z,21.61
2023-04-12T08:07:26.762Z,21.62
2023-04-12T08:08:26.747Z,21.62
2023-04-12T08:09:26.731Z,21.62
2023-04-12T08:10:26.710Z,21.62
2023-04-12T08:11:26.689Z,21.62
2023-04-12T08:12:26.677Z,21.61
2023-04-12T08:13:26.647Z,21.62
2023-04-12T08:14:26.628Z,21.61
2023-04-12T08:15:26.619Z,21.62
2023-04-12T08:16:26.642Z,21.60
2023-04-12T08:17:26.589Z,21.61
2023-04-12T08:18:26.549Z,21.61
2023-04-12T08:19:26.526Z,21.61
2023-04-12T08:20:26.505Z,21.61
2023-04-12T08:21:26.478Z,21.60
2023-04-12T08:22:26.456Z,21.60
2023-04-12T08:23:26.428Z,21.60
2023-04-12T08:24:26.429Z,21.61
2023-04-12T08:25:26.450Z,21.60
2023-04-12T08:26:26.529Z,21.61
2023-04-12T08:27:26.515Z,21.62
2023-04-12T08:28:27.461Z,21.63
2023-04-12T08:29:26.601Z,21.64
2023-04-12T08:30:26.646Z,21.66
2023-04-12T08:31:26.711Z,21.70
2023-04-12T08:32:26.765Z,21.73
2023-04-12T08:33:26.786Z,21.77
2023-04-12T08:34:27.731Z,21.81
2023-04-12T08:35:26.704Z,21.87
2023-04-12T08:36:26.675Z,21.92
2023-04-12T08:37:26.651Z,21.97
2023-04-12T08:38:41.550Z,22.02
2023-04-12T08:39:27.602Z,22.06
2023-04-12T08:40:26.566Z,22.11
2023-04-12T08:41:26.531Z,22.15
2023-04-12T08:42:27.979Z,22.20
2023-04-12T08:43:26.494Z,22.23
2023-04-12T08:44:26.491Z,22.28
2023-04-12T08:45:26.414Z,22.32
2023-04-12T08:46:26.390Z,22.36
2023-04-12T08:47:26.394Z,22.40
2023-04-12T08:48:26.329Z,22.43
2023-04-12T08:49:26.310Z,22.45
2023-04-12T08:50:26.281Z,22.49
2023-04-12T08:51:26.243Z,22.51
2023-04-12T08:52:26.212Z,22.55
2023-04-12T08:53:26.180Z,22.58
2023-04-12T08:54:26.132Z,22.62
2023-04-12T08:55:26.107Z,22.64
2023-04-12T08:56:26.074Z,22.67
2023-04-12T08:57:26.038Z,22.68
2023-04-12T08:58:25.998Z,22.70
2023-04-12T08:59:25.965Z,22.70
2023-04-12T09:00:25.928Z,22.71
2023-04-12T09:01:25.910Z,22.73
2023-04-12T09:02:26.106Z,22.75
2023-04-12T09:03:26.019Z,22.76
2023-04-12T09:04:25.950Z,22.78
2023-04-12T09:05:25.951Z,22.79
2023-04-12T09:06:25.887Z,22.79
2023-04-12T09:07:25.883Z,22.80
2023-04-12T09:08:25.875Z,22.81
2023-04-12T09:09:25.872Z,22.82
2023-04-12T09:10:25.885Z,22.83
2023-04-12T09:11:26.266Z,22.86
2023-04-12T09:12:25.919Z,22.86
2023-04-12T09:13:25.900Z,22.88
2023-04-12T09:14:25.911Z,22.89
2023-04-12T09:15:25.927Z,22.89
2023-04-12T09:16:26.031Z,22.91
2023-04-12T09:17:26.013Z,22.87
2023-04-12T09:18:25.924Z,22.65
2023-04-12T09:19:25.916Z,22.38
2023-04-12T09:20:25.934Z,22.10
2023-04-12T09:21:25.978Z,21.65
2023-04-12T09:22:25.952Z,21.33
2023-04-12T09:23:25.965Z,21.21
2023-04-12T09:24:25.985Z,21.21
2023-04-12T09:25:25.968Z,21.28
2023-04-12T09:26:25.978Z,21.37
2023-04-12T09:27:25.992Z,21.48
2023-04-12T09:28:26.740Z,21.59
2023-04-12T09:29:26.108Z,21.68
2023-04-12T09:30:26.130Z,21.79
2023-04-12T09:31:26.152Z,21.89
2023-04-12T09:32:26.116Z,21.97
2023-04-12T09:33:26.104Z,22.05
2023-04-12T09:34:28.056Z,22.13
2023-04-12T09:35:26.096Z,22.20
2023-04-12T09:36:26.132Z,22.27
2023-04-12T09:37:26.021Z,22.33
2023-04-12T09:38:25.998Z,22.39
2023-04-12T09:39:25.983Z,22.44
2023-04-12T09:40:25.980Z,22.48
2023-04-12T09:41:27.145Z,22.52
2023-04-12T09:42:33.943Z,22.56
2023-04-12T09:43:26.917Z,22.59
2023-04-12T09:44:25.877Z,22.61
2023-04-12T09:45:26.179Z,22.65
2023-04-12T09:46:25.876Z,22.68
2023-04-12T09:47:25.832Z,22.72
2023-04-12T09:48:25.754Z,22.73
2023-04-12T09:49:25.718Z,22.75
2023-04-12T09:50:25.698Z,22.79
2023-04-12T09:51:25.658Z,22.82
2023-04-12T09:52:25.667Z,22.84
2023-04-12T09:53:25.691Z,22.87
2023-04-12T09:54:25.708Z,22.89
2023-04-12T09:55:25.748Z,22.91
2023-04-12T09:56:25.815Z,22.93
2023-04-12T09:57:25.795Z,22.94
2023-04-12T09:58:25.832Z,22.96
2023-04-12T09:59:25.792Z,22.97
2023-04-12T10:00:25.776Z,22.98
2023-04-12T10:01:25.777Z,23.00
2023-04-12T10:02:25.788Z,23.02
2023-04-12T10:03:25.812Z,23.04
2023-04-12T10:04:25.843Z,23.07
2023-04-12T10:05:26.372Z,23.09
2023-04-12T10:06:26.088Z,23.13
2023-04-12T10:07:25.596Z,23.14
2023-04-12T10:08:25.440Z,23.17
2023-04-12T10:09:25.387Z,23.18
2023-04-12T10:10:25.410Z,23.18
2023-04-12T10:11:25.391Z,23.17
2023-04-12T10:12:25.426Z,23.14
2023-04-12T10:13:25.401Z,23.11
2023-04-12T10:14:25.417Z,23.10
2023-04-12T10:15:25.502Z,23.06
2023-04-12T10:16:25.548Z,22.98
2023-04-12T10:17:25.489Z,22.96
2023-04-12T10:18:25.465Z,22.95
2023-04-12T10:19:25.508Z,22.97
2023-04-12T10:20:28.948Z,22.98
2023-04-12T10:21:25.477Z,23.02
2023-04-12T10:22:25.429Z,23.03
2023-04-12T10:23:25.399Z,23.05
2023-04-12T10:24:25.371Z,23.07
2023-04-12T10:25:25.426Z,23.09
2023-04-12T10:26:25.300Z,23.10
2023-04-12T10:27:25.242Z,23.12
2023-04-12T10:28:25.198Z,23.14
2023-04-12T10:29:25.158Z,23.15
2023-04-12T10:30:25.098Z,23.17
2023-04-12T10:31:25.186Z,23.18
2023-04-12T10:32:25.102Z,23.20
2023-04-12T10:33:25.149Z,23.22
2023-04-12T10:34:24.976Z,23.23
2023-04-12T10:35:24.929Z,23.23
2023-04-12T10:36:24.900Z,23.24
2023-04-12T10:37:25.627Z,23.25
2023-04-12T10:38:24.848Z,23.26
2023-04-12T10:39:24.753Z,23.27
2023-04-12T10:40:24.717Z,23.28
2023-04-12T10:41:25.577Z,23.28
2023-04-12T10:42:24.736Z,23.25
2023-04-12T10:43:24.626Z,23.21
2023-04-12T10:44:24.596Z,23.20
2023-04-12T10:45:24.519Z,23.18
2023-04-12T10:46:24.598Z,23.17
2023-04-12T10:47:24.713Z,23.17
2023-04-12T10:48:24.724Z,23.17
2023-04-12T10:49:24.571Z,23.18
2023-04-12T10:50:24.658Z,23.19
2023-04-12T10:51:24.607Z,23.19
2023-04-12T10:52:24.625Z,23.21
2023-04-12T10:53:24.674Z,23.21
2023-04-12T10:54:24.633Z,23.22
2023-04-12T10:55:24.691Z,23.23
2023-04-12T10:56:24.694Z,23.25
2023-04-12T10:57:24.647Z,23.27
2023-04-12T10:58:24.686Z,23.29
2023-04-12T10:59:34.366Z,23.31
2023-04-12T11:00:27.860Z,23.30
2023-04-12T11:01:24.755Z,23.31
2023-04-12T11:02:24.730Z,23.31
2023-04-12T11:03:24.688Z,23.33
2023-04-12T11:04:24.628Z,23.33
2023-04-12T11:05:24.582Z,23.33
2023-04-12T11:06:27.857Z,23.33
2023-04-12T11:07:24.315Z,23.31
2023-04-12T11:08:24.253Z,23.29
2023-04-12T11:09:24.200Z,23.28
2023-04-12T11:10:24.187Z,23.27
2023-04-12T11:11:24.142Z,23.25
2023-04-12T11:12:24.066Z,23.22
2023-04-12T11:13:24.034Z,23.19
2023-04-12T11:14:24.001Z,23.16
2023-04-12T11:15:23.990Z,23.13
2023-04-12T11:16:23.928Z,23.11
2023-04-12T11:17:24.275Z,23.08
2023-04-12T11:18:23.877Z,23.06
2023-04-12T11:19:23.776Z,23.03
2023-04-12T11:20:23.790Z,23.00
2023-04-12T11:21:23.716Z,22.97
2023-04-12T11:22:23.710Z,22.94
2023-04-12T11:23:23.620Z,22.92
2023-04-12T11:24:23.572Z,22.90
2023-04-12T11:25:23.570Z,22.87
2023-04-12T11:26:23.508Z,22.85
2023-04-12T11:27:23.497Z,22.84
2023-04-12T11:28:29.639Z,22.81
2023-04-12T11:29:25.114Z,22.79
2023-04-12T11:30:23.383Z,22.76
2023-04-12T11:31:23.464Z,22.76
2023-04-12T11:32:23.362Z,22.74
2023-04-12T11:33:23.248Z,22.73
2023-04-12T11:34:23.229Z,22.72
2023-04-12T11:35:23.205Z,22.71
2023-04-12T11:36:23.165Z,22.69
2023-04-12T11:37:23.124Z,22.67
2023-04-12T11:38:23.088Z,22.66
2023-04-12T11:39:23.049Z,22.66
2023-04-12T11:40:23.019Z,22.65
2023-04-12T11:41:22.983Z,22.64
2023-04-12T11:42:22.953Z,22.63
2023-04-12T11:43:22.914Z,22.62
2023-04-12T11:44:22.885Z,22.61
2023-04-12T11:45:22.846Z,22.60
2023-04-12T11:46:22.877Z,22.59
2023-04-12T11:47:22.863Z,22.57
2023-04-12T11:48:22.743Z,22.57
2023-04-12T11:49:22.717Z,22.55
2023-04-12T11:50:22.686Z,22.55
2023-04-12T11:51:22.667Z,22.55
2023-04-12T11:52:22.620Z,22.54
2023-04-12T11:53:22.587Z,22.54
2023-04-12T11:54:22.546Z,22.54
2023-04-12T11:55:22.509Z,22.53
2023-04-12T11:56:22.478Z,22.53
2023-04-12T11:57:22.449Z,22.53
2023-04-12T11:58:22.414Z,22.53
2023-04-12T11:59:22.387Z,22.53
2023-04-12T12:00:22.349Z,22.52
2023-04-12T12:01:22.333Z,22.53
2023-04-12T12:02:24.338Z,22.53
2023-04-12T12:03:22.409Z,22.53
2023-04-12T12:04:22.413Z,22.54
2023-04-12T12:05:22.712Z,22.54
2023-04-12T12:06:22.622Z,22.55
2023-04-12T12:07:22.324Z,22.55
2023-04-12T12:08:22.075Z,22.55
2023-04-12T12:09:22.053Z,22.55
2023-04-12T12:10:39.912Z,22.55
2023-04-12T12:11:22.987Z,22.54
2023-04-12T12:12:21.948Z,22.54
2023-04-12T12:13:21.909Z,22.54
2023-04-12T12:14:21.876Z,22.54
2023-04-12T12:15:21.848Z,22.54
2023-04-12T12:16:21.865Z,22.53
2023-04-12T12:17:21.799Z,22.54
2023-04-12T12:18:21.731Z,22.53
2023-04-12T12:19:21.693Z,22.53
2023-04-12T12:20:21.698Z,22.53
2023-04-12T12:21:21.615Z,22.53
2023-04-12T12:22:21.602Z,22.53
2023-04-12T12:23:21.539Z,22.53
2023-04-12T12:24:21.500Z,22.53
2023-04-12T12:25:21.476Z,22.53
2023-04-12T12:26:21.443Z,22.53
2023-04-12T12:27:21.446Z,22.53
2023-04-12T12:28:21.390Z,22.52
2023-04-12T12:29:21.354Z,22.51
2023-04-12T12:30:21.302Z,22.51
2023-04-12T12:31:21.435Z,22.51
2023-04-12T12:32:21.257Z,22.51
2023-04-12T12:33:26.812Z,22.51
2023-04-12T12:34:22.177Z,22.50
2023-04-12T12:35:21.130Z,22.49
2023-04-12T12:36:21.223Z,22.49
2023-04-12T12:37:21.084Z,22.48
2023-04-12T12:38:21.028Z,22.49
2023-04-12T12:39:20.997Z,22.48
2023-04-12T12:40:20.968Z,22.47
2023-04-12T12:41:20.950Z,22.47
2023-04-12T12:42:20.894Z,22.47
2023-04-12T12:43:20.973Z,22.47
2023-04-12T12:44:20.827Z,22.45
2023-04-12T12:45:20.792Z,22.45
2023-04-12T12:46:20.831Z,22.45
2023-04-12T12:47:20.748Z,22.44
2023-04-12T12:48:20.721Z,22.44
2023-04-12T12:49:20.671Z,22.43
2023-04-12T12:50:23.369Z,22.43
2023-04-12T12:51:20.607Z,22.42
2023-04-12T12:52:20.599Z,22.43